sensor_id;sensor_type;location;lat;lon;timestamp;P1;durP1;ratioP1;P2;durP2;ratioP2
5821;SDS011;2937;48.562;8.022;2023-02-28T00:01:34;6.90;;;4.37;;
5821;SDS011;2937;48.562;8.022;2023-02-28T00:06:27;5.80;;;3.50;;
5821;SDS011;2937;48.562;8.022;2023-02-28T00:11:19;7.40;;;4.37;;
5821;SDS011;2937;48.562;8.022;2023-02-28T00:16:13;6.10;;;4.50;;
5821;SDS011;2937;48.562;8.022;2023-02-28T00:21:07;5.30;;;3.77;;
5821;SDS011;2937;48.562;8.022;2023-02-28T00:26:00;5.60;;;4.17;;
5821;SDS011;2937;48.562;8.022;2023-02-28T00:30:53;6.67;;;4.43;;
5821;SDS011;2937;48.562;8.022;2023-02-28T00:35:45;6.10;;;4.60;;
5821;SDS011;2937;48.562;8.022;2023-02-28T00:40:41;5.70;;;4.03;;
5821;SDS011;2937;48.562;8.022;2023-02-28T00:45:35;7.63;;;4.60;;
5821;SDS011;2937;48.562;8.022;2023-02-28T00:50:28;6.97;;;4.47;;
5821;SDS011;2937;48.562;8.022;2023-02-28T00:55:21;5.60;;;3.67;;
5821;SDS011;2937;48.562;8.022;2023-02-28T01:00:15;6.20;;;4.30;;
5821;SDS011;2937;48.562;8.022;2023-02-28T01:05:08;6.33;;;4.20;;
5821;SDS011;2937;48.562;8.022;2023-02-28T01:10:00;6.73;;;4.77;;
5821;SDS011;2937;48.562;8.022;2023-02-28T01:14:53;5.43;;;4.40;;
5821;SDS011;2937;48.562;8.022;2023-02-28T01:19:47;5.33;;;4.60;;
5821;SDS011;2937;48.562;8.022;2023-02-28T01:24:39;9.40;;;4.70;;
5821;SDS011;2937;48.562;8.022;2023-02-28T01:29:32;7.63;;;4.87;;
5821;SDS011;2937;48.562;8.022;2023-02-28T01:34:25;7.57;;;5.37;;
5821;SDS011;2937;48.562;8.022;2023-02-28T01:39:19;6.00;;;4.40;;
5821;SDS011;2937;48.562;8.022;2023-02-28T01:49:22;6.60;;;3.90;;
5821;SDS011;2937;48.562;8.022;2023-02-28T01:54:20;4.00;;;3.43;;
5821;SDS011;2937;48.562;8.022;2023-02-28T01:59:17;7.70;;;4.40;;
5821;SDS011;2937;48.562;8.022;2023-02-28T02:04:12;6.20;;;4.80;;
5821;SDS011;2937;48.562;8.022;2023-02-28T02:09:05;6.10;;;4.60;;
5821;SDS011;2937;48.562;8.022;2023-02-28T02:14:03;9.23;;;4.40;;
5821;SDS011;2937;48.562;8.022;2023-02-28T02:19:03;6.60;;;4.73;;
5821;SDS011;2937;48.562;8.022;2023-02-28T02:24:14;7.90;;;4.17;;
5821;SDS011;2937;48.562;8.022;2023-02-28T02:29:26;7.00;;;5.20;;
5821;SDS011;2937;48.562;8.022;2023-02-28T02:39:34;6.27;;;4.77;;
5821;SDS011;2937;48.562;8.022;2023-02-28T02:44:30;7.10;;;4.10;;
5821;SDS011;2937;48.562;8.022;2023-02-28T02:49:24;8.10;;;5.40;;
5821;SDS011;2937;48.562;8.022;2023-02-28T02:54:19;7.50;;;5.60;;
5821;SDS011;2937;48.562;8.022;2023-02-28T02:59:15;8.47;;;4.43;;
5821;SDS011;2937;48.562;8.022;2023-02-28T03:04:13;9.00;;;5.43;;
5821;SDS011;2937;48.562;8.022;2023-02-28T03:09:07;7.23;;;4.90;;
5821;SDS011;2937;48.562;8.022;2023-02-28T03:19:17;8.77;;;6.03;;
5821;SDS011;2937;48.562;8.022;2023-02-28T03:24:14;8.30;;;5.40;;
5821;SDS011;2937;48.562;8.022;2023-02-28T03:29:12;8.20;;;4.50;;
5821;SDS011;2937;48.562;8.022;2023-02-28T03:34:09;6.47;;;4.27;;
5821;SDS011;2937;48.562;8.022;2023-02-28T03:39:05;7.93;;;4.87;;
5821;SDS011;2937;48.562;8.022;2023-02-28T03:44:00;7.97;;;5.20;;
5821;SDS011;2937;48.562;8.022;2023-02-28T03:48:55;9.07;;;5.37;;
5821;SDS011;2937;48.562;8.022;2023-02-28T03:53:50;11.03;;;6.73;;
5821;SDS011;2937;48.562;8.022;2023-02-28T03:58:46;6.20;;;3.93;;
5821;SDS011;2937;48.562;8.022;2023-02-28T04:03:39;10.90;;;6.83;;
5821;SDS011;2937;48.562;8.022;2023-02-28T04:08:32;10.20;;;6.17;;
5821;SDS011;2937;48.562;8.022;2023-02-28T04:13:25;10.00;;;6.53;;
5821;SDS011;2937;48.562;8.022;2023-02-28T04:18:19;5.27;;;4.43;;
5821;SDS011;2937;48.562;8.022;2023-02-28T04:23:11;9.13;;;6.70;;
5821;SDS011;2937;48.562;8.022;2023-02-28T04:28:04;7.77;;;5.33;;
5821;SDS011;2937;48.562;8.022;2023-02-28T04:32:57;9.23;;;5.67;;
5821;SDS011;2937;48.562;8.022;2023-02-28T04:37:50;6.03;;;4.50;;
5821;SDS011;2937;48.562;8.022;2023-02-28T04:42:43;7.30;;;4.60;;
5821;SDS011;2937;48.562;8.022;2023-02-28T04:47:36;8.93;;;5.83;;
5821;SDS011;2937;48.562;8.022;2023-02-28T04:52:28;12.97;;;6.30;;
5821;SDS011;2937;48.562;8.022;2023-02-28T04:57:22;5.10;;;3.80;;
5821;SDS011;2937;48.562;8.022;2023-02-28T05:02:15;9.00;;;5.90;;
5821;SDS011;2937;48.562;8.022;2023-02-28T05:07:08;12.07;;;7.40;;
5821;SDS011;2937;48.562;8.022;2023-02-28T05:12:01;8.47;;;4.97;;
5821;SDS011;2937;48.562;8.022;2023-02-28T05:16:55;6.37;;;4.53;;
5821;SDS011;2937;48.562;8.022;2023-02-28T05:21:48;8.97;;;6.00;;
5821;SDS011;2937;48.562;8.022;2023-02-28T05:26:42;8.53;;;5.30;;
5821;SDS011;2937;48.562;8.022;2023-02-28T05:31:35;9.47;;;6.30;;
5821;SDS011;2937;48.562;8.022;2023-02-28T05:36:30;11.07;;;6.47;;
5821;SDS011;2937;48.562;8.022;2023-02-28T05:41:22;7.40;;;4.10;;
5821;SDS011;2937;48.562;8.022;2023-02-28T05:46:15;7.60;;;4.87;;
5821;SDS011;2937;48.562;8.022;2023-02-28T05:51:08;31.07;;;12.47;;
5821;SDS011;2937;48.562;8.022;2023-02-28T05:56:03;35.00;;;12.80;;
5821;SDS011;2937;48.562;8.022;2023-02-28T06:00:56;14.10;;;7.60;;
5821;SDS011;2937;48.562;8.022;2023-02-28T06:05:49;19.27;;;10.40;;
5821;SDS011;2937;48.562;8.022;2023-02-28T06:10:42;24.73;;;13.20;;
5821;SDS011;2937;48.562;8.022;2023-02-28T06:15:36;8.13;;;5.50;;
5821;SDS011;2937;48.562;8.022;2023-02-28T06:20:29;10.03;;;6.00;;
5821;SDS011;2937;48.562;8.022;2023-02-28T06:25:21;9.80;;;6.30;;
5821;SDS011;2937;48.562;8.022;2023-02-28T06:30:14;11.63;;;8.13;;
5821;SDS011;2937;48.562;8.022;2023-02-28T06:35:08;9.27;;;5.27;;
5821;SDS011;2937;48.562;8.022;2023-02-28T06:40:01;8.30;;;5.13;;
5821;SDS011;2937;48.562;8.022;2023-02-28T06:44:57;10.00;;;6.53;;
5821;SDS011;2937;48.562;8.022;2023-02-28T06:49:50;9.97;;;6.57;;
5821;SDS011;2937;48.562;8.022;2023-02-28T06:54:44;15.20;;;8.90;;
5821;SDS011;2937;48.562;8.022;2023-02-28T06:59:37;10.87;;;6.27;;
5821;SDS011;2937;48.562;8.022;2023-02-28T07:04:29;14.40;;;8.57;;
5821;SDS011;2937;48.562;8.022;2023-02-28T07:09:22;14.43;;;8.97;;
5821;SDS011;2937;48.562;8.022;2023-02-28T07:14:16;10.33;;;6.30;;
5821;SDS011;2937;48.562;8.022;2023-02-28T07:19:08;11.27;;;7.47;;
5821;SDS011;2937;48.562;8.022;2023-02-28T07:24:01;12.60;;;6.67;;
5821;SDS011;2937;48.562;8.022;2023-02-28T07:28:53;10.83;;;7.00;;
5821;SDS011;2937;48.562;8.022;2023-02-28T07:33:47;13.27;;;8.33;;
5821;SDS011;2937;48.562;8.022;2023-02-28T07:38:40;15.83;;;8.47;;
5821;SDS011;2937;48.562;8.022;2023-02-28T07:43:33;12.83;;;8.10;;
5821;SDS011;2937;48.562;8.022;2023-02-28T07:48:26;11.20;;;7.57;;
5821;SDS011;2937;48.562;8.022;2023-02-28T07:53:20;13.20;;;7.00;;
5821;SDS011;2937;48.562;8.022;2023-02-28T07:58:13;12.83;;;7.90;;
5821;SDS011;2937;48.562;8.022;2023-02-28T08:03:07;17.23;;;7.60;;
5821;SDS011;2937;48.562;8.022;2023-02-28T08:08:00;13.57;;;7.60;;
5821;SDS011;2937;48.562;8.022;2023-02-28T08:12:54;14.50;;;8.70;;
5821;SDS011;2937;48.562;8.022;2023-02-28T08:17:47;8.33;;;5.00;;
5821;SDS011;2937;48.562;8.022;2023-02-28T08:22:40;16.37;;;9.63;;
5821;SDS011;2937;48.562;8.022;2023-02-28T08:27:36;16.73;;;9.13;;
5821;SDS011;2937;48.562;8.022;2023-02-28T08:32:30;15.77;;;8.33;;
5821;SDS011;2937;48.562;8.022;2023-02-28T08:37:24;14.20;;;9.87;;
5821;SDS011;2937;48.562;8.022;2023-02-28T08:42:17;12.20;;;6.63;;
5821;SDS011;2937;48.562;8.022;2023-02-28T08:47:09;14.10;;;7.93;;
5821;SDS011;2937;48.562;8.022;2023-02-28T08:52:03;15.10;;;9.40;;
5821;SDS011;2937;48.562;8.022;2023-02-28T08:56:56;14.20;;;9.30;;
5821;SDS011;2937;48.562;8.022;2023-02-28T09:01:49;14.30;;;8.90;;
5821;SDS011;2937;48.562;8.022;2023-02-28T09:06:41;17.80;;;11.10;;
5821;SDS011;2937;48.562;8.022;2023-02-28T09:11:37;16.77;;;10.47;;
5821;SDS011;2937;48.562;8.022;2023-02-28T09:16:29;15.37;;;9.57;;
5821;SDS011;2937;48.562;8.022;2023-02-28T09:21:24;14.17;;;8.57;;
5821;SDS011;2937;48.562;8.022;2023-02-28T09:26:17;17.57;;;9.57;;
5821;SDS011;2937;48.562;8.022;2023-02-28T09:31:13;17.57;;;11.03;;
5821;SDS011;2937;48.562;8.022;2023-02-28T09:36:06;19.30;;;10.70;;
5821;SDS011;2937;48.562;8.022;2023-02-28T09:41:00;18.03;;;10.07;;
5821;SDS011;2937;48.562;8.022;2023-02-28T09:45:54;17.37;;;9.77;;
5821;SDS011;2937;48.562;8.022;2023-02-28T09:50:52;13.30;;;8.10;;
5821;SDS011;2937;48.562;8.022;2023-02-28T09:55:48;17.20;;;10.63;;
5821;SDS011;2937;48.562;8.022;2023-02-28T10:00:42;20.10;;;11.80;;
5821;SDS011;2937;48.562;8.022;2023-02-28T10:05:36;17.63;;;10.80;;
5821;SDS011;2937;48.562;8.022;2023-02-28T10:10:34;17.20;;;10.40;;
5821;SDS011;2937;48.562;8.022;2023-02-28T10:15:30;17.27;;;10.53;;
5821;SDS011;2937;48.562;8.022;2023-02-28T10:20:24;17.73;;;10.40;;
5821;SDS011;2937;48.562;8.022;2023-02-28T10:25:22;17.87;;;11.53;;
5821;SDS011;2937;48.562;8.022;2023-02-28T10:30:17;16.10;;;9.40;;
5821;SDS011;2937;48.562;8.022;2023-02-28T10:35:10;17.27;;;10.53;;
5821;SDS011;2937;48.562;8.022;2023-02-28T10:40:07;14.17;;;8.93;;
5821;SDS011;2937;48.562;8.022;2023-02-28T10:45:18;21.07;;;8.77;;
5821;SDS011;2937;48.562;8.022;2023-02-28T10:50:25;18.40;;;11.23;;
5821;SDS011;2937;48.562;8.022;2023-02-28T10:55:20;22.83;;;12.07;;
5821;SDS011;2937;48.562;8.022;2023-02-28T11:00:14;14.90;;;9.10;;
5821;SDS011;2937;48.562;8.022;2023-02-28T11:05:28;24.23;;;13.80;;
5821;SDS011;2937;48.562;8.022;2023-02-28T11:10:23;18.97;;;12.80;;
5821;SDS011;2937;48.562;8.022;2023-02-28T11:15:20;28.20;;;18.97;;
5821;SDS011;2937;48.562;8.022;2023-02-28T11:20:17;15.87;;;8.97;;
5821;SDS011;2937;48.562;8.022;2023-02-28T11:25:16;20.10;;;11.07;;
5821;SDS011;2937;48.562;8.022;2023-02-28T11:30:25;23.93;;;12.53;;
5821;SDS011;2937;48.562;8.022;2023-02-28T11:35:19;17.13;;;11.77;;
5821;SDS011;2937;48.562;8.022;2023-02-28T11:40:15;20.00;;;12.67;;
5821;SDS011;2937;48.562;8.022;2023-02-28T11:45:12;21.77;;;12.60;;
5821;SDS011;2937;48.562;8.022;2023-02-28T11:50:22;18.87;;;12.33;;
5821;SDS011;2937;48.562;8.022;2023-02-28T11:55:19;17.17;;;11.17;;
5821;SDS011;2937;48.562;8.022;2023-02-28T12:00:18;15.27;;;11.10;;
5821;SDS011;2937;48.562;8.022;2023-02-28T12:05:15;15.43;;;9.87;;
5821;SDS011;2937;48.562;8.022;2023-02-28T12:10:16;17.53;;;10.77;;
5821;SDS011;2937;48.562;8.022;2023-02-28T12:15:19;19.43;;;11.83;;
5821;SDS011;2937;48.562;8.022;2023-02-28T12:20:18;15.03;;;9.87;;
5821;SDS011;2937;48.562;8.022;2023-02-28T12:25:24;14.83;;;10.33;;
5821;SDS011;2937;48.562;8.022;2023-02-28T12:30:24;16.90;;;11.27;;
5821;SDS011;2937;48.562;8.022;2023-02-28T12:35:18;14.67;;;10.83;;
5821;SDS011;2937;48.562;8.022;2023-02-28T12:40:13;15.80;;;11.57;;
5821;SDS011;2937;48.562;8.022;2023-02-28T12:45:09;15.40;;;11.20;;
5821;SDS011;2937;48.562;8.022;2023-02-28T12:50:05;16.67;;;11.20;;
5821;SDS011;2937;48.562;8.022;2023-02-28T12:54:59;15.43;;;10.57;;
5821;SDS011;2937;48.562;8.022;2023-02-28T12:59:54;15.20;;;10.73;;
5821;SDS011;2937;48.562;8.022;2023-02-28T13:05:00;13.80;;;10.53;;
5821;SDS011;2937;48.562;8.022;2023-02-28T13:09:56;15.17;;;11.50;;
5821;SDS011;2937;48.562;8.022;2023-02-28T13:14:49;17.23;;;10.80;;
5821;SDS011;2937;48.562;8.022;2023-02-28T13:19:44;16.10;;;11.47;;
5821;SDS011;2937;48.562;8.022;2023-02-28T13:24:43;15.90;;;12.17;;
5821;SDS011;2937;48.562;8.022;2023-02-28T13:29:38;16.47;;;12.00;;
5821;SDS011;2937;48.562;8.022;2023-02-28T13:34:32;18.53;;;12.20;;
5821;SDS011;2937;48.562;8.022;2023-02-28T13:44:50;15.30;;;11.97;;
5821;SDS011;2937;48.562;8.022;2023-02-28T13:50:19;14.57;;;11.77;;
5821;SDS011;2937;48.562;8.022;2023-02-28T13:55:17;15.27;;;12.13;;
5821;SDS011;2937;48.562;8.022;2023-02-28T14:00:20;14.80;;;11.97;;
5821;SDS011;2937;48.562;8.022;2023-02-28T14:05:14;14.03;;;11.70;;
5821;SDS011;2937;48.562;8.022;2023-02-28T14:10:16;17.10;;;12.60;;
5821;SDS011;2937;48.562;8.022;2023-02-28T14:15:28;14.97;;;11.50;;
5821;SDS011;2937;48.562;8.022;2023-02-28T14:20:23;14.97;;;11.60;;
5821;SDS011;2937;48.562;8.022;2023-02-28T14:25:18;14.50;;;11.50;;
5821;SDS011;2937;48.562;8.022;2023-02-28T14:30:37;15.60;;;11.20;;
5821;SDS011;2937;48.562;8.022;2023-02-28T14:35:40;16.10;;;11.37;;
5821;SDS011;2937;48.562;8.022;2023-02-28T14:40:36;13.43;;;10.53;;
5821;SDS011;2937;48.562;8.022;2023-02-28T14:45:32;13.93;;;10.70;;
5821;SDS011;2937;48.562;8.022;2023-02-28T14:50:27;15.77;;;11.57;;
5821;SDS011;2937;48.562;8.022;2023-02-28T14:55:28;14.80;;;11.00;;
5821;SDS011;2937;48.562;8.022;2023-02-28T15:00:22;14.27;;;11.00;;
5821;SDS011;2937;48.562;8.022;2023-02-28T15:05:24;16.23;;;11.33;;
5821;SDS011;2937;48.562;8.022;2023-02-28T15:10:18;12.77;;;10.80;;
5821;SDS011;2937;48.562;8.022;2023-02-28T15:15:14;17.80;;;12.33;;
5821;SDS011;2937;48.562;8.022;2023-02-28T15:20:10;25.27;;;16.57;;
5821;SDS011;2937;48.562;8.022;2023-02-28T15:25:05;19.00;;;14.20;;
5821;SDS011;2937;48.562;8.022;2023-02-28T15:29:59;20.40;;;14.37;;
5821;SDS011;2937;48.562;8.022;2023-02-28T15:34:53;21.47;;;14.13;;
5821;SDS011;2937;48.562;8.022;2023-02-28T15:39:45;33.20;;;14.47;;
5821;SDS011;2937;48.562;8.022;2023-02-28T15:44:40;22.17;;;14.50;;
5821;SDS011;2937;48.562;8.022;2023-02-28T15:49:36;17.23;;;13.07;;
5821;SDS011;2937;48.562;8.022;2023-02-28T15:54:35;18.07;;;12.20;;
5821;SDS011;2937;48.562;8.022;2023-02-28T15:59:28;17.50;;;12.93;;
5821;SDS011;2937;48.562;8.022;2023-02-28T16:04:23;24.70;;;17.00;;
5821;SDS011;2937;48.562;8.022;2023-02-28T16:09:20;20.20;;;15.10;;
5821;SDS011;2937;48.562;8.022;2023-02-28T16:14:14;29.33;;;17.50;;
5821;SDS011;2937;48.562;8.022;2023-02-28T16:19:07;23.27;;;16.27;;
5821;SDS011;2937;48.562;8.022;2023-02-28T16:24:01;28.70;;;19.40;;
5821;SDS011;2937;48.562;8.022;2023-02-28T16:28:54;21.93;;;15.20;;
5821;SDS011;2937;48.562;8.022;2023-02-28T16:33:47;28.77;;;19.00;;
5821;SDS011;2937;48.562;8.022;2023-02-28T16:38:40;23.03;;;16.27;;
5821;SDS011;2937;48.562;8.022;2023-02-28T16:43:34;33.07;;;21.30;;
5821;SDS011;2937;48.562;8.022;2023-02-28T16:48:26;34.60;;;20.70;;
5821;SDS011;2937;48.562;8.022;2023-02-28T16:53:19;22.37;;;14.83;;
5821;SDS011;2937;48.562;8.022;2023-02-28T16:58:13;53.93;;;32.77;;
5821;SDS011;2937;48.562;8.022;2023-02-28T17:03:09;32.33;;;21.70;;
5821;SDS011;2937;48.562;8.022;2023-02-28T17:08:14;22.63;;;16.00;;
5821;SDS011;2937;48.562;8.022;2023-02-28T17:13:07;20.07;;;13.73;;
5821;SDS011;2937;48.562;8.022;2023-02-28T17:18:06;32.33;;;19.47;;
5821;SDS011;2937;48.562;8.022;2023-02-28T17:23:01;32.87;;;18.80;;
5821;SDS011;2937;48.562;8.022;2023-02-28T17:27:54;35.27;;;20.23;;
5821;SDS011;2937;48.562;8.022;2023-02-28T17:32:47;58.73;;;36.03;;
5821;SDS011;2937;48.562;8.022;2023-02-28T17:37:40;49.10;;;27.80;;
5821;SDS011;2937;48.562;8.022;2023-02-28T17:42:34;162.93;;;77.00;;
5821;SDS011;2937;48.562;8.022;2023-02-28T17:47:27;44.23;;;26.77;;
5821;SDS011;2937;48.562;8.022;2023-02-28T17:52:19;38.90;;;22.93;;
5821;SDS011;2937;48.562;8.022;2023-02-28T17:57:13;45.10;;;25.77;;
5821;SDS011;2937;48.562;8.022;2023-02-28T18:02:08;35.33;;;21.00;;
5821;SDS011;2937;48.562;8.022;2023-02-28T18:07:02;38.50;;;21.00;;
5821;SDS011;2937;48.562;8.022;2023-02-28T18:11:55;32.33;;;18.70;;
5821;SDS011;2937;48.562;8.022;2023-02-28T18:16:47;35.93;;;19.20;;
5821;SDS011;2937;48.562;8.022;2023-02-28T18:21:42;28.83;;;16.77;;
5821;SDS011;2937;48.562;8.022;2023-02-28T18:26:35;22.77;;;12.43;;
5821;SDS011;2937;48.562;8.022;2023-02-28T18:31:28;24.80;;;15.37;;
5821;SDS011;2937;48.562;8.022;2023-02-28T18:36:22;23.90;;;14.63;;
5821;SDS011;2937;48.562;8.022;2023-02-28T18:41:17;27.93;;;15.97;;
5821;SDS011;2937;48.562;8.022;2023-02-28T18:46:12;23.50;;;14.03;;
5821;SDS011;2937;48.562;8.022;2023-02-28T18:51:05;28.03;;;13.87;;
5821;SDS011;2937;48.562;8.022;2023-02-28T18:55:59;24.73;;;14.30;;
5821;SDS011;2937;48.562;8.022;2023-02-28T19:00:53;44.07;;;21.37;;
5821;SDS011;2937;48.562;8.022;2023-02-28T19:05:45;20.37;;;10.80;;
5821;SDS011;2937;48.562;8.022;2023-02-28T19:10:41;23.60;;;14.00;;
5821;SDS011;2937;48.562;8.022;2023-02-28T19:15:34;26.50;;;15.00;;
5821;SDS011;2937;48.562;8.022;2023-02-28T19:20:28;30.13;;;13.43;;
5821;SDS011;2937;48.562;8.022;2023-02-28T19:25:21;26.00;;;14.77;;
5821;SDS011;2937;48.562;8.022;2023-02-28T19:30:14;55.27;;;13.80;;
5821;SDS011;2937;48.562;8.022;2023-02-28T19:35:07;38.40;;;19.47;;
5821;SDS011;2937;48.562;8.022;2023-02-28T19:40:01;30.43;;;15.27;;
5821;SDS011;2937;48.562;8.022;2023-02-28T19:44:54;27.40;;;15.50;;
5821;SDS011;2937;48.562;8.022;2023-02-28T19:49:48;27.47;;;13.77;;
5821;SDS011;2937;48.562;8.022;2023-02-28T19:54:41;25.93;;;15.40;;
5821;SDS011;2937;48.562;8.022;2023-02-28T19:59:53;28.70;;;14.23;;
5821;SDS011;2937;48.562;8.022;2023-02-28T20:05:09;27.43;;;15.17;;
5821;SDS011;2937;48.562;8.022;2023-02-28T20:10:02;30.43;;;16.90;;
5821;SDS011;2937;48.562;8.022;2023-02-28T20:14:57;29.60;;;14.20;;
5821;SDS011;2937;48.562;8.022;2023-02-28T20:19:50;29.37;;;15.77;;
5821;SDS011;2937;48.562;8.022;2023-02-28T20:24:43;27.53;;;15.40;;
5821;SDS011;2937;48.562;8.022;2023-02-28T20:29:35;34.47;;;17.17;;
5821;SDS011;2937;48.562;8.022;2023-02-28T20:34:29;36.43;;;18.70;;
5821;SDS011;2937;48.562;8.022;2023-02-28T20:39:22;30.23;;;16.20;;
5821;SDS011;2937;48.562;8.022;2023-02-28T20:44:15;33.43;;;18.47;;
5821;SDS011;2937;48.562;8.022;2023-02-28T20:49:08;38.10;;;19.90;;
5821;SDS011;2937;48.562;8.022;2023-02-28T20:54:02;37.73;;;20.87;;
5821;SDS011;2937;48.562;8.022;2023-02-28T20:58:55;31.90;;;18.60;;
5821;SDS011;2937;48.562;8.022;2023-02-28T21:03:49;30.00;;;16.50;;
5821;SDS011;2937;48.562;8.022;2023-02-28T21:08:42;31.70;;;17.70;;
5821;SDS011;2937;48.562;8.022;2023-02-28T21:13:36;35.70;;;17.50;;
5821;SDS011;2937;48.562;8.022;2023-02-28T21:18:32;34.60;;;14.70;;
5821;SDS011;2937;48.562;8.022;2023-02-28T21:23:25;34.50;;;19.13;;
5821;SDS011;2937;48.562;8.022;2023-02-28T21:28:18;40.40;;;19.27;;
5821;SDS011;2937;48.562;8.022;2023-02-28T21:33:12;30.03;;;17.77;;
5821;SDS011;2937;48.562;8.022;2023-02-28T21:38:04;42.40;;;22.47;;
5821;SDS011;2937;48.562;8.022;2023-02-28T21:43:00;35.70;;;17.87;;
5821;SDS011;2937;48.562;8.022;2023-02-28T21:47:53;31.07;;;18.00;;
5821;SDS011;2937;48.562;8.022;2023-02-28T21:52:47;34.23;;;19.23;;
5821;SDS011;2937;48.562;8.022;2023-02-28T21:57:40;31.90;;;17.00;;
5821;SDS011;2937;48.562;8.022;2023-02-28T22:02:32;33.00;;;18.60;;
5821;SDS011;2937;48.562;8.022;2023-02-28T22:07:27;33.07;;;17.33;;
5821;SDS011;2937;48.562;8.022;2023-02-28T22:12:21;20.90;;;9.57;;
5821;SDS011;2937;48.562;8.022;2023-02-28T22:17:13;35.93;;;17.40;;
5821;SDS011;2937;48.562;8.022;2023-02-28T22:22:06;35.57;;;18.17;;
5821;SDS011;2937;48.562;8.022;2023-02-28T22:26:59;35.50;;;17.27;;
5821;SDS011;2937;48.562;8.022;2023-02-28T22:31:53;31.93;;;17.83;;
5821;SDS011;2937;48.562;8.022;2023-02-28T22:36:46;31.10;;;17.90;;
5821;SDS011;2937;48.562;8.022;2023-02-28T22:41:38;46.53;;;23.40;;
5821;SDS011;2937;48.562;8.022;2023-02-28T22:46:32;42.17;;;20.10;;
5821;SDS011;2937;48.562;8.022;2023-02-28T22:51:27;35.63;;;18.83;;
5821;SDS011;2937;48.562;8.022;2023-02-28T22:56:20;31.73;;;18.43;;
5821;SDS011;2937;48.562;8.022;2023-02-28T23:01:14;38.13;;;20.23;;
5821;SDS011;2937;48.562;8.022;2023-02-28T23:06:10;35.13;;;18.73;;
5821;SDS011;2937;48.562;8.022;2023-02-28T23:11:05;38.10;;;18.90;;
5821;SDS011;2937;48.562;8.022;2023-02-28T23:15:58;35.87;;;18.17;;
5821;SDS011;2937;48.562;8.022;2023-02-28T23:20:50;35.57;;;18.17;;
5821;SDS011;2937;48.562;8.022;2023-02-28T23:25:43;33.97;;;17.80;;
5821;SDS011;2937;48.562;8.022;2023-02-28T23:30:37;34.43;;;19.17;;
5821;SDS011;2937;48.562;8.022;2023-02-28T23:35:30;33.67;;;18.23;;
5821;SDS011;2937;48.562;8.022;2023-02-28T23:40:23;38.13;;;19.47;;
5821;SDS011;2937;48.562;8.022;2023-02-28T23:45:16;36.90;;;18.87;;
5821;SDS011;2937;48.562;8.022;2023-02-28T23:50:10;37.40;;;18.20;;
5821;SDS011;2937;48.562;8.022;2023-02-28T23:55:04;38.87;;;19.43;;
5821;SDS011;2937;48.562;8.022;2023-02-28T23:59:56;37.07;;;20.20;;
